Time;durP1;ratioP1;P1;durP2;ratioP2;P2;SDS_P1;SDS_P2;PMS_P1;PMS_P2;Temp;Humidity;BMP_temperature;BMP_pressure;BME280_temperature;BME280_humidity;BME280_pressure;Samples;Min_cycle;Max_cycle;Signal;HPM_P1;HPM_P2
2021/04/25 00:01:14;;;;;;;37.80;20.63;;;;;;;7.10;58.79;99264.33;2257978;79;21211;-77
2021/04/25 00:04:16;;;;;;;40.30;20.17;;;;;;;7.01;59.08;99264.91;2257813;78;21148;-78
2021/04/25 00:07:17;;;;;;;37.47;19.07;;;;;;;6.97;59.19;99260.45;2258149;79;21120;-79
2021/04/25 00:10:18;;;;;;;35.27;19.53;;;;;;;6.92;59.03;99255.49;2257818;79;21073;-78
2021/04/25 00:13:19;;;;;;;38.63;19.33;;;;;;;6.82;59.38;99249.54;2257925;79;21080;-77
2021/04/25 00:16:22;;;;;;;37.53;19.53;;;;;;;6.75;59.96;99244.98;2257746;79;21462;-78
2021/04/25 00:19:23;;;;;;;41.70;19.80;;;;;;;6.65;60.40;99250.69;2257684;79;21153;-78
2021/04/25 00:22:24;;;;;;;38.60;18.13;;;;;;;6.54;60.72;99248.15;2257561;79;21140;-77
2021/04/25 00:25:25;;;;;;;31.57;17.17;;;;;;;6.44;60.92;99244.77;2258258;79;21061;-78
2021/04/25 00:28:26;;;;;;;33.47;17.27;;;;;;;6.32;61.51;99246.11;2257789;79;21124;-78
2021/04/25 00:31:27;;;;;;;30.77;16.67;;;;;;;6.24;61.81;99238.90;2258111;79;21218;-78
2021/04/25 00:34:28;;;;;;;34.27;17.30;;;;;;;6.24;61.81;99238.90;2258050;79;21070;-78
2021/04/25 00:37:29;;;;;;;34.30;16.40;;;;;;;6.14;62.44;99236.81;2257988;79;21120;-80
2021/04/25 00:40:31;;;;;;;45.47;20.17;;;;;;;6.14;62.44;99236.81;2258205;78;21227;-80
2021/04/25 00:43:32;;;;;;;36.53;17.57;;;;;;;6.10;62.36;99246.60;2258196;79;21410;-80
2021/04/25 00:46:33;;;;;;;37.97;18.63;;;;;;;6.10;62.36;99246.60;2258480;79;21144;-80
2021/04/25 00:49:34;;;;;;;37.80;18.63;;;;;;;6.01;62.57;99244.11;2258242;79;21157;-79
2021/04/25 00:52:35;;;;;;;37.13;18.43;;;;;;;5.95;63.02;99241.72;2258041;79;21422;-79
2021/04/25 00:55:36;;;;;;;42.93;17.50;;;;;;;5.95;63.02;99241.72;2257943;79;21112;-79
2021/04/25 00:58:37;;;;;;;41.17;18.87;;;;;;;5.91;63.37;99244.61;2258064;79;21108;-79
2021/04/25 01:01:39;;;;;;;40.80;19.97;;;;;;;5.91;63.48;99243.31;2258156;79;21152;-80
2021/04/25 01:04:40;;;;;;;47.93;21.43;;;;;;;5.93;63.57;99245.55;2258085;79;21100;-79
2021/04/25 01:07:41;;;;;;;47.83;22.00;;;;;;;5.89;63.42;99247.55;2257988;79;21384;-79
2021/04/25 01:10:42;;;;;;;48.77;22.67;;;;;;;5.92;63.49;99246.78;2258124;79;21110;-79
2021/04/25 01:13:43;;;;;;;55.93;26.03;;;;;;;5.90;63.52;99240.25;2258215;79;21089;-79
2021/04/25 01:16:44;;;;;;;58.73;29.03;;;;;;;5.92;63.61;99233.83;2257688;78;21496;-79
2021/04/25 01:19:45;;;;;;;56.93;27.47;;;;;;;5.99;63.74;99231.93;2257672;79;21421;-78
2021/04/25 01:22:46;;;;;;;52.80;25.77;;;;;;;5.97;63.80;99230.99;2257890;79;21167;-79
2021/04/25 01:25:48;;;;;;;57.57;27.43;;;;;;;5.93;64.16;99224.81;2257768;79;21259;-78
2021/04/25 01:28:51;;;;;;;54.03;26.80;;;;;;;5.93;64.16;99224.81;2257815;79;21247;-78
2021/04/25 01:31:52;;;;;;;50.57;24.83;;;;;;;5.97;63.87;99228.41;2257883;79;21076;-78
2021/04/25 01:34:54;;;;;;;59.57;25.67;;;;;;;5.97;63.87;99228.41;2257945;78;21243;-78
2021/04/25 01:37:55;;;;;;;49.57;25.90;;;;;;;5.98;64.15;99219.39;2257705;79;21120;-78
2021/04/25 01:40:56;;;;;;;51.00;24.60;;;;;;;6.01;64.17;99220.79;2257668;79;21354;-78
2021/04/25 01:43:57;;;;;;;46.27;23.23;;;;;;;5.99;63.55;99217.68;2257678;78;21149;-78
2021/04/25 01:46:58;;;;;;;55.03;24.10;;;;;;;6.01;63.40;99212.13;2257695;78;21108;-78
2021/04/25 01:49:59;;;;;;;51.30;24.47;;;;;;;6.05;63.47;99211.42;2257874;79;21391;-78
2021/04/25 01:53:00;;;;;;;41.50;21.90;;;;;;;6.08;63.41;99213.27;2258015;79;21073;-79
2021/04/25 01:56:02;;;;;;;49.83;23.27;;;;;;;6.08;63.39;99210.67;2257760;79;21097;-79
2021/04/25 01:59:03;;;;;;;51.73;22.83;;;;;;;6.12;63.52;99206.06;2257884;79;21108;-78
2021/04/25 02:02:04;;;;;;;46.23;21.53;;;;;;;6.04;63.52;99201.46;2257898;79;21148;-79
2021/04/25 02:05:05;;;;;;;43.10;22.70;;;;;;;6.04;63.52;99201.46;2257763;79;21077;-79
2021/04/25 02:08:06;;;;;;;45.13;23.53;;;;;;;6.04;63.86;99204.47;2258359;79;21231;-78
2021/04/25 02:11:07;;;;;;;39.57;20.87;;;;;;;6.02;63.79;99203.53;2257869;79;21132;-79
2021/04/25 02:14:08;;;;;;;38.57;19.03;;;;;;;6.00;63.66;99195.70;2257925;79;21112;-79
2021/04/25 02:17:10;;;;;;;35.80;18.27;;;;;;;6.02;63.59;99199.23;2258329;79;21108;-79
2021/04/25 02:20:11;;;;;;;30.17;16.53;;;;;;;5.99;63.48;99195.23;2258178;79;21124;-78
2021/04/25 02:23:12;;;;;;;34.17;16.30;;;;;;;5.98;63.20;99191.30;2242319;79;21137;-79
2021/04/25 02:26:13;;;;;;;25.90;14.93;;;;;;;5.95;63.05;99189.89;2226133;79;21217;-78
2021/04/25 02:29:14;;;;;;;27.03;15.67;;;;;;;5.92;62.98;99191.96;2226173;80;21216;-78
2021/04/25 02:32:15;;;;;;;25.87;14.97;;;;;;;5.93;62.94;99192.84;2226253;80;21246;-78
2021/04/25 02:35:16;;;;;;;26.93;15.87;;;;;;;5.92;62.97;99194.55;2226472;80;21114;-78
2021/04/25 02:38:17;;;;;;;31.80;16.37;;;;;;;5.87;63.02;99199.95;2226099;80;21245;-78
2021/04/25 02:41:18;;;;;;;27.30;15.73;;;;;;;5.84;63.12;99202.84;2226196;80;21097;-78
2021/04/25 02:44:19;;;;;;;33.57;17.33;;;;;;;5.82;63.13;99201.91;2226207;80;21097;-78
2021/04/25 02:47:20;;;;;;;33.43;16.77;;;;;;;5.80;63.29;99203.56;2226216;80;21137;-78
2021/04/25 02:50:21;;;;;;;32.57;18.07;;;;;;;5.76;63.18;99208.63;2226179;80;21102;-78
2021/04/25 02:53:22;;;;;;;35.07;18.00;;;;;;;5.70;63.33;99201.93;2226263;80;21129;-78
2021/04/25 02:56:23;;;;;;;36.87;18.63;;;;;;;5.67;63.55;99205.70;2226321;80;21082;-78
2021/04/25 02:59:24;;;;;;;33.03;16.67;;;;;;;5.62;63.53;99203.36;2226453;80;21101;-82
2021/04/25 03:02:26;;;;;;;36.20;18.73;;;;;;;5.84;69.36;99198.95;2227864;80;21165;-82
2021/04/25 03:05:27;;;;;;;35.97;17.67;;;;;;;9.87;69.40;99192.80;2227958;80;21125;-82
2021/04/25 03:08:28;;;;;;;36.70;17.83;;;;;;;13.14;61.25;99185.22;2227958;80;21196;-83
2021/04/25 03:11:29;;;;;;;32.00;16.70;;;;;;;15.11;54.78;99185.06;2227249;80;21225;-79
2021/04/25 03:14:30;;;;;;;29.07;16.47;;;;;;;16.10;50.34;99174.30;2226590;79;21225;-78
2021/04/25 03:17:31;;;;;;;28.23;16.17;;;;;;;14.24;46.83;99178.81;2226372;80;21118;-78
2021/04/25 03:20:32;;;;;;;32.97;16.50;;;;;;;12.10;47.48;99182.48;2226211;80;21106;-78
2021/04/25 03:23:33;;;;;;;28.20;15.57;;;;;;;10.56;49.08;99184.59;2242622;79;21144;-78
2021/04/25 03:26:35;;;;;;;29.70;16.30;;;;;;;9.50;50.70;99188.52;2257776;78;21124;-78
2021/04/25 03:29:36;;;;;;;33.83;17.97;;;;;;;8.57;52.42;99181.10;2257798;79;21230;-79
2021/04/25 03:32:37;;;;;;;30.10;16.07;;;;;;;7.98;53.82;99186.89;2258032;79;21112;-78
2021/04/25 03:35:38;;;;;;;26.60;15.00;;;;;;;7.53;54.92;99189.03;2257773;79;21418;-78
2021/04/25 03:38:39;;;;;;;27.37;15.23;;;;;;;7.10;56.07;99185.56;2257807;79;21415;-78
2021/04/25 03:41:40;;;;;;;30.03;15.97;;;;;;;6.83;57.19;99183.84;2257703;79;21121;-78
2021/04/25 03:44:41;;;;;;;26.60;15.27;;;;;;;6.53;57.82;99182.84;2257743;79;21077;-76
2021/04/25 03:47:42;;;;;;;29.27;15.20;;;;;;;6.41;58.40;99182.44;2257766;79;21109;-77
2021/04/25 03:50:43;;;;;;;26.33;14.60;;;;;;;6.27;58.86;99189.33;2257721;79;21133;-77
2021/04/25 03:53:44;;;;;;;30.23;15.43;;;;;;;6.18;59.71;99189.44;2258023;79;21226;-77
2021/04/25 03:56:46;;;;;;;34.73;19.03;;;;;;;6.08;59.76;99192.13;2257715;79;21108;-77
2021/04/25 03:59:47;;;;;;;48.07;26.83;;;;;;;6.05;59.63;99186.80;2258139;79;21096;-78
2021/04/25 04:02:48;;;;;;;44.20;23.87;;;;;;;6.05;59.85;99189.39;2257744;79;21131;-77
2021/04/25 04:05:49;;;;;;;38.73;21.13;;;;;;;6.02;60.05;99193.17;2257822;79;21120;-77
2021/04/25 04:08:50;;;;;;;34.30;18.43;;;;;;;6.00;60.39;99193.53;2257741;79;21080;-77
2021/04/25 04:11:51;;;;;;;33.97;18.30;;;;;;;5.99;60.70;99192.64;2257808;79;21116;-77
2021/04/25 04:14:52;;;;;;;31.97;15.97;;;;;;;5.95;60.88;99183.00;2257902;79;21211;-78
2021/04/25 04:17:53;;;;;;;32.23;16.20;;;;;;;5.97;61.14;99187.83;2257703;78;21127;-77
2021/04/25 04:20:54;;;;;;;33.57;17.53;;;;;;;6.29;68.50;99191.56;2257839;79;21136;-80
2021/04/25 04:23:55;;;;;;;34.20;17.00;;;;;;;6.29;68.50;99191.56;2258319;78;21124;-81
2021/04/25 04:26:56;;;;;;;31.53;16.97;;;;;;;9.90;68.14;99184.61;2258376;79;21119;-81
2021/04/25 04:29:57;;;;;;;31.17;18.07;;;;;;;12.81;61.40;99177.52;2258711;79;21403;-81
2021/04/25 04:32:58;;;;;;;34.00;17.03;;;;;;;14.71;55.90;99178.03;2258822;79;21080;-81
2021/04/25 04:35:59;;;;;;;30.20;18.30;;;;;;;15.96;51.89;99172.63;2258644;79;21125;-81
2021/04/25 04:39:00;;;;;;;38.30;18.90;;;;;;;16.82;48.77;99172.58;2258755;79;21069;-81
2021/04/25 04:42:01;;;;;;;26.42;16.42;;;;;;;17.38;46.71;99166.81;2258777;79;21428;-82
2021/04/25 04:45:02;;;;;;;32.90;16.62;;;;;;;17.79;44.88;99169.02;2259238;79;21085;-82
2021/04/25 04:48:04;;;;;;;32.42;16.80;;;;;;;18.12;43.50;99175.63;2258872;79;21073;-81
2021/04/25 04:51:05;;;;;;;28.47;15.68;;;;;;;18.36;42.23;99178.87;2258536;79;21104;-80
2021/04/25 04:54:06;;;;;;;31.45;18.42;;;;;;;18.49;41.15;99168.98;2258496;78;21124;-81
2021/04/25 04:57:07;;;;;;;26.02;15.65;;;;;;;18.54;40.79;99173.76;2258534;79;21108;-80
2021/04/25 05:00:08;;;;;;;31.62;16.73;;;;;;;18.78;40.55;99180.02;2258511;79;21129;-80
2021/04/25 05:03:09;;;;;;;110.63;21.95;;;;;;;19.03;40.81;99180.05;2258566;79;21168;-80
2021/04/25 05:06:10;;;;;;;93.67;26.50;;;;;;;19.26;42.03;99181.00;2258386;79;21097;-79
2021/04/25 05:09:11;;;;;;;37.23;20.90;;;;;;;19.24;39.56;99181.92;2258038;79;21113;-80
2021/04/25 05:12:12;;;;;;;32.33;18.67;;;;;;;16.81;36.11;99183.56;2258253;79;21410;-79
2021/04/25 05:15:13;;;;;;;28.30;17.45;;;;;;;14.19;37.95;99184.48;2258121;79;21533;-80
2021/04/25 05:18:14;;;;;;;27.93;17.52;;;;;;;12.20;40.62;99186.54;2258424;79;21125;-79
2021/04/25 05:21:15;;;;;;;33.00;19.27;;;;;;;10.95;43.06;99191.31;2258035;79;21077;-79
2021/04/25 05:24:16;;;;;;;39.50;20.80;;;;;;;10.14;44.77;99198.55;2258257;78;21156;-80
2021/04/25 05:27:18;;;;;;;37.65;20.85;;;;;;;9.56;46.24;99189.98;2258132;79;21101;-79
2021/04/25 05:30:19;;;;;;;34.35;18.50;;;;;;;9.14;47.40;99197.69;2257917;79;21112;-79
2021/04/25 05:33:20;;;;;;;36.13;20.10;;;;;;;8.84;48.24;99194.83;2257952;79;21136;-78
2021/04/25 05:36:21;;;;;;;29.60;17.23;;;;;;;8.51;49.24;99192.23;2257903;79;21105;-79
2021/04/25 05:39:22;;;;;;;32.03;18.33;;;;;;;8.28;49.87;99199.41;2258007;79;21494;-80
2021/04/25 05:42:23;;;;;;;28.60;16.80;;;;;;;8.02;50.33;99199.55;2257982;79;21116;-79
2021/04/25 05:45:24;;;;;;;30.17;16.10;;;;;;;7.91;50.75;99197.53;2257871;79;21128;-79
2021/04/25 05:48:25;;;;;;;33.97;16.63;;;;;;;7.88;50.80;99193.97;2257750;79;21073;-78
2021/04/25 05:51:26;;;;;;;25.83;14.93;;;;;;;7.82;51.12;99195.09;2257894;79;21112;-79
2021/04/25 05:54:27;;;;;;;24.63;15.40;;;;;;;7.82;51.34;99198.58;2257805;78;21227;-79
2021/04/25 05:57:28;;;;;;;28.47;15.27;;;;;;;7.82;51.15;99190.78;2257955;79;21239;-80
2021/04/25 06:00:32;;;;;;;25.83;14.33;;;;;;;7.95;51.52;99198.50;2257757;79;21132;-78
2021/04/25 06:03:33;;;;;;;35.70;18.17;;;;;;;7.95;51.11;99204.58;2257828;79;21141;-79
2021/04/25 06:06:34;;;;;;;23.27;14.83;;;;;;;7.95;51.63;99208.48;2257898;79;21120;-79
2021/04/25 06:09:35;;;;;;;26.67;14.40;;;;;;;7.89;52.81;99211.33;2258019;79;21120;-79
2021/04/25 06:12:36;;;;;;;27.07;14.43;;;;;;;7.88;51.57;99208.27;2257872;79;21414;-79
2021/04/25 06:15:37;;;;;;;23.50;13.67;;;;;;;7.83;51.88;99213.34;2257798;79;21108;-79
2021/04/25 06:18:38;;;;;;;22.80;14.07;;;;;;;7.98;51.50;99208.98;2257888;79;21105;-79
2021/04/25 06:21:39;;;;;;;21.33;12.30;;;;;;;8.01;50.38;99206.89;2257870;79;21226;-78
2021/04/25 06:24:43;;;;;;;18.47;10.63;;;;;;;8.17;50.36;99210.37;2238029;79;21145;-79
2021/04/25 06:27:44;;;;;;;21.10;11.75;;;;;;;8.31;49.32;99208.59;2226485;79;21089;-79
2021/04/25 06:30:45;;;;;;;24.60;14.87;;;;;;;8.32;48.69;99208.17;2226697;80;21384;-79
2021/04/25 06:33:47;;;;;;;22.80;12.20;;;;;;;8.35;48.78;99210.02;2226458;79;21216;-78
2021/04/25 06:36:48;;;;;;;21.70;12.47;;;;;;;8.35;48.42;99210.02;2226327;79;21113;-78
2021/04/25 06:39:49;;;;;;;25.13;13.37;;;;;;;8.33;48.15;99203.86;2226683;80;21126;-80
2021/04/25 06:42:51;;;;;;;22.63;12.53;;;;;;;8.41;48.22;99200.65;2226746;80;21145;-80
2021/04/25 06:45:52;;;;;;;19.63;9.63;;;;;;;8.58;48.00;99202.38;2226714;79;21383;-79
2021/04/25 06:48:53;;;;;;;15.50;9.43;;;;;;;8.76;47.31;99195.06;2226793;80;21167;-79
2021/04/25 06:51:55;;;;;;;16.93;9.70;;;;;;;8.94;45.97;99194.63;2226562;80;21109;-78
2021/04/25 06:54:57;;;;;;;16.43;9.90;;;;;;;9.03;45.60;99191.36;2226406;79;21220;-78
2021/04/25 06:57:58;;;;;;;15.40;9.17;;;;;;;9.19;45.72;99196.95;2226735;80;21106;-78
2021/04/25 07:00:59;;;;;;;15.10;8.80;;;;;;;9.43;45.39;99193.13;2226491;80;21097;-79
2021/04/25 07:04:00;;;;;;;18.50;10.53;;;;;;;9.68;44.75;99189.36;2226514;80;21129;-80
2021/04/25 07:07:01;;;;;;;17.57;10.07;;;;;;;9.97;44.14;99189.95;2226505;80;21106;-78
2021/04/25 07:10:02;;;;;;;17.77;9.57;;;;;;;10.06;43.50;99198.83;2227000;80;21229;-79
2021/04/25 07:13:03;;;;;;;20.80;11.60;;;;;;;10.28;43.21;99199.27;2226614;79;21220;-80
2021/04/25 07:16:05;;;;;;;15.70;9.47;;;;;;;10.35;42.79;99189.39;2226765;80;21097;-79
2021/04/25 07:19:06;;;;;;;13.60;8.30;;;;;;;10.35;41.81;99188.09;2226181;80;21435;-78
2021/04/25 07:22:07;;;;;;;16.40;8.88;;;;;;;10.41;41.87;99185.20;2226065;79;21264;-79
2021/04/25 07:25:08;;;;;;;14.40;7.85;;;;;;;10.60;41.12;99185.09;2226169;79;21141;-80
2021/04/25 07:28:09;;;;;;;10.32;6.92;;;;;;;10.84;38.96;99190.72;2226435;80;21126;-79
2021/04/25 07:31:12;;;;;;;11.20;7.67;;;;;;;10.75;38.20;99188.38;2226592;79;21220;-78
2021/04/25 07:34:13;;;;;;;13.00;8.53;;;;;;;10.84;39.17;99186.80;2226538;79;21098;-78
2021/04/25 07:37:14;;;;;;;12.15;7.33;;;;;;;10.92;38.30;99186.92;2226470;79;21109;-80
2021/04/25 07:40:15;;;;;;;8.75;5.80;;;;;;;10.88;37.32;99182.94;2226613;80;21375;-79
2021/04/25 07:43:16;;;;;;;10.50;4.78;;;;;;;10.90;37.10;99182.10;2226520;80;21181;-79
2021/04/25 07:46:17;;;;;;;11.10;6.15;;;;;;;10.73;35.53;99180.95;2226203;80;21094;-77
2021/04/25 07:49:18;;;;;;;9.48;5.45;;;;;;;10.74;37.89;99181.41;2226229;80;21137;-79
2021/04/25 07:52:19;;;;;;;10.82;6.03;;;;;;;10.79;36.40;99178.02;2226776;80;21396;-80
2021/04/25 07:55:20;;;;;;;7.85;4.70;;;;;;;11.10;36.81;99185.02;2226672;80;21113;-80
2021/04/25 07:58:21;;;;;;;7.28;4.60;;;;;;;11.24;35.14;99184.80;2226803;80;21074;-80
2021/04/25 08:01:24;;;;;;;10.28;4.60;;;;;;;11.07;35.72;99181.05;2227241;80;21308;-79
2021/04/25 08:04:25;;;;;;;12.00;6.75;;;;;;;11.07;35.03;99179.32;2226727;80;21162;-80
2021/04/25 08:07:26;;;;;;;9.55;5.35;;;;;;;11.02;36.22;99181.41;2226878;80;21130;-80
2021/04/25 08:10:27;;;;;;;10.60;5.60;;;;;;;10.86;36.83;99181.60;2226819;80;21395;-80
2021/04/25 08:13:28;;;;;;;9.90;5.72;;;;;;;10.68;36.52;99187.83;2226789;80;21121;-80
2021/04/25 08:16:29;;;;;;;7.95;5.55;;;;;;;10.73;36.91;99186.17;2226818;80;21106;-80
2021/04/25 08:19:30;;;;;;;8.75;4.60;;;;;;;10.80;37.24;99180.20;2226643;80;21515;-80
2021/04/25 08:22:31;;;;;;;10.78;4.72;;;;;;;11.06;35.79;99176.69;2226736;80;21268;-80
2021/04/25 08:25:32;;;;;;;6.12;4.65;;;;;;;11.50;35.36;99177.35;2249463;79;21549;-80
2021/04/25 08:28:33;;;;;;;8.48;4.53;;;;;;;11.81;34.73;99178.66;2258532;78;21211;-80
2021/04/25 08:31:34;;;;;;;9.23;5.33;;;;;;;12.01;33.54;99174.53;2258210;78;21109;-79
2021/04/25 08:34:36;;;;;;;11.15;5.92;;;;;;;12.04;34.53;99169.77;2258165;79;21414;-80
2021/04/25 08:37:37;;;;;;;10.00;4.05;;;;;;;12.01;33.65;99169.30;2258314;78;21072;-80
2021/04/25 08:40:38;;;;;;;8.68;4.58;;;;;;;12.09;33.01;99171.57;2258151;79;21100;-79
2021/04/25 08:43:39;;;;;;;7.70;4.87;;;;;;;12.15;34.40;99169.91;2258242;79;21429;-80
2021/04/25 08:46:40;;;;;;;6.97;5.05;;;;;;;11.96;32.98;99177.95;2258280;79;21123;-80
2021/04/25 08:49:41;;;;;;;9.03;5.35;;;;;;;11.85;33.99;99173.03;2258427;78;21172;-80
2021/04/25 08:52:42;;;;;;;11.22;5.08;;;;;;;11.83;33.94;99166.47;2258517;78;21121;-81
2021/04/25 08:55:43;;;;;;;10.70;5.45;;;;;;;11.69;32.90;99164.09;2258253;79;21124;-80
2021/04/25 08:58:45;;;;;;;8.23;5.65;;;;;;;11.47;32.55;99162.50;2258291;79;21109;-80
2021/04/25 09:01:46;;;;;;;7.87;4.03;;;;;;;11.65;33.92;99163.59;2258141;79;21421;-80
2021/04/25 09:04:47;;;;;;;7.42;5.00;;;;;;;11.77;32.14;99158.52;2258458;78;21398;-82
2021/04/25 09:07:48;;;;;;;5.40;4.28;;;;;;;11.99;31.65;99155.32;2258333;79;21108;-79
2021/04/25 09:10:49;;;;;;;5.55;4.00;;;;;;;12.03;32.29;99149.69;2258009;79;21096;-79
2021/04/25 09:13:50;;;;;;;5.95;3.35;;;;;;;11.65;32.09;99157.94;2258143;79;21391;-79
2021/04/25 09:16:51;;;;;;;9.25;4.80;;;;;;;11.14;32.79;99155.47;2257976;79;21076;-79
2021/04/25 09:19:53;;;;;;;6.28;4.08;;;;;;;10.78;33.24;99158.41;2258292;79;21152;-80
2021/04/25 09:22:54;;;;;;;6.72;4.55;;;;;;;10.51;33.07;99160.14;2258102;79;21176;-80
2021/04/25 09:25:55;;;;;;;7.92;4.87;;;;;;;10.46;34.39;99165.28;2257636;78;21406;-77
2021/04/25 09:28:56;;;;;;;10.65;4.35;;;;;;;10.51;33.92;99166.23;2257863;79;21402;-78
2021/04/25 09:31:57;;;;;;;9.45;4.58;;;;;;;10.47;34.55;99167.46;2257850;79;21402;-78
2021/04/25 09:34:58;;;;;;;10.77;4.47;;;;;;;10.36;34.54;99167.24;2258221;79;21069;-78
2021/04/25 09:37:59;;;;;;;9.30;3.30;;;;;;;10.19;34.42;99160.38;2258052;79;21113;-78
2021/04/25 09:41:00;;;;;;;6.08;3.62;;;;;;;10.24;34.25;99164.84;2258226;79;21211;-78
2021/04/25 09:44:01;;;;;;;5.97;4.23;;;;;;;10.41;33.43;99169.54;2257912;79;21137;-78
2021/04/25 09:47:03;;;;;;;9.40;3.80;;;;;;;10.42;33.27;99163.47;2257763;79;21081;-77
2021/04/25 09:50:04;;;;;;;5.60;3.70;;;;;;;10.53;33.93;99159.73;2257792;79;21454;-78
2021/04/25 09:53:05;;;;;;;7.78;4.10;;;;;;;10.65;33.64;99174.30;2258061;79;21127;-79
2021/04/25 09:56:06;;;;;;;7.97;4.60;;;;;;;10.54;33.64;99160.19;2258214;79;21109;-79
2021/04/25 09:59:07;;;;;;;8.63;4.42;;;;;;;10.53;34.61;99158.01;2257864;79;21108;-78
2021/04/25 10:02:08;;;;;;;8.43;4.28;;;;;;;10.41;33.57;99164.32;2258098;79;21445;-79
2021/04/25 10:05:10;;;;;;;7.97;4.22;;;;;;;10.30;34.11;99159.30;2258378;79;21112;-79
2021/04/25 10:08:11;;;;;;;7.22;4.33;;;;;;;10.42;33.98;99158.25;2258464;79;21120;-78
2021/04/25 10:11:12;;;;;;;4.85;3.62;;;;;;;10.38;33.16;99152.91;2258027;79;21123;-78
2021/04/25 10:14:14;;;;;;;5.75;3.50;;;;;;;10.49;33.22;99146.19;2258071;78;21328;-79
2021/04/25 10:17:15;;;;;;;4.05;3.35;;;;;;;10.34;32.21;99157.63;2257966;78;21112;-80
2021/04/25 10:20:16;;;;;;;5.72;3.70;;;;;;;10.35;33.33;99141.13;2258173;79;21116;-78
2021/04/25 10:23:17;;;;;;;7.78;3.77;;;;;;;10.38;32.06;99147.70;2258159;79;21152;-78
2021/04/25 10:26:18;;;;;;;8.35;4.80;;;;;;;10.36;32.37;99150.70;2233201;78;21407;-78
2021/04/25 10:29:19;;;;;;;8.40;4.83;;;;;;;10.45;32.29;99145.25;2226490;79;21106;-77
2021/04/25 10:32:24;;;;;;;6.95;3.72;;;;;;;10.54;31.96;99145.83;2226392;79;21122;-77
2021/04/25 10:35:25;;;;;;;7.20;4.17;;;;;;;10.43;32.76;99136.95;2226529;80;21093;-78
2021/04/25 10:38:26;;;;;;;7.28;3.40;;;;;;;10.35;32.31;99145.03;2226776;80;21113;-77
2021/04/25 10:41:27;;;;;;;7.27;3.80;;;;;;;10.11;31.92;99150.66;2227201;80;21078;-79
2021/04/25 10:44:28;;;;;;;7.80;4.30;;;;;;;10.00;32.65;99149.16;2226903;80;21157;-78
2021/04/25 10:47:29;;;;;;;7.67;4.90;;;;;;;10.02;32.84;99160.49;2226643;80;21126;-78
2021/04/25 10:50:30;;;;;;;7.37;4.40;;;;;;;10.21;33.33;99153.92;2226854;80;21095;-77
2021/04/25 10:53:32;;;;;;;5.45;3.35;;;;;;;10.41;31.70;99154.31;2226896;80;21106;-77
2021/04/25 10:56:33;;;;;;;6.78;4.30;;;;;;;10.37;31.05;99151.16;2226869;80;21220;-77
2021/04/25 10:59:36;;;;;;;7.50;4.03;;;;;;;10.35;31.17;99160.69;2226520;79;21081;-77
2021/04/25 11:02:40;;;;;;;5.83;3.80;;;;;;;10.35;32.39;99156.78;2226347;80;21162;-77
2021/04/25 11:05:41;;;;;;;5.85;3.92;;;;;;;10.31;32.32;99152.36;2226388;80;21078;-79
2021/04/25 11:08:42;;;;;;;5.12;3.70;;;;;;;10.33;32.28;99157.17;2226479;80;21066;-78
2021/04/25 11:11:43;;;;;;;8.53;4.80;;;;;;;10.51;31.82;99153.19;2226250;80;21133;-78
2021/04/25 11:14:44;;;;;;;6.62;3.50;;;;;;;10.71;32.48;99159.16;2226232;80;21368;-78
2021/04/25 11:17:46;;;;;;;8.10;4.72;;;;;;;10.80;30.45;99165.84;2226134;80;21125;-78
2021/04/25 11:20:47;;;;;;;6.37;4.28;;;;;;;10.92;30.50;99163.42;2226397;80;21261;-79
2021/04/25 11:23:48;;;;;;;6.15;4.20;;;;;;;11.06;30.89;99164.94;2226570;80;21149;-79
2021/04/25 11:26:51;;;;;;;7.70;3.25;;;;;;;11.12;30.05;99175.05;2253677;79;21112;-79
2021/04/25 11:29:52;;;;;;;4.10;3.30;;;;;;;10.84;29.73;99164.60;2258312;79;21092;-79
2021/04/25 11:32:53;;;;;;;5.05;3.10;;;;;;;10.82;29.93;99171.97;2258030;78;21101;-78
2021/04/25 11:35:54;;;;;;;6.78;4.05;;;;;;;10.83;30.44;99166.77;2258164;79;21213;-79
2021/04/25 11:38:55;;;;;;;5.25;3.87;;;;;;;10.71;30.63;99157.86;2258010;79;21096;-79
2021/04/25 11:41:56;;;;;;;6.50;3.85;;;;;;;10.66;30.96;99152.56;2258047;78;21125;-77
2021/04/25 11:44:57;;;;;;;8.65;4.75;;;;;;;10.60;30.18;99160.72;2258144;79;21118;-79
2021/04/25 11:47:59;;;;;;;9.05;5.08;;;;;;;10.56;31.75;99155.87;2258448;79;21092;-80
2021/04/25 11:51:00;;;;;;;9.38;3.47;;;;;;;10.49;31.07;99164.45;2258382;79;21157;-78
2021/04/25 11:54:01;;;;;;;6.60;3.30;;;;;;;10.11;31.28;99171.52;2258090;79;21370;-80
2021/04/25 11:57:02;;;;;;;5.40;3.33;;;;;;;10.05;31.53;99166.20;2258227;79;21108;-80
2021/04/25 12:00:03;;;;;;;5.77;3.03;;;;;;;10.07;31.36;99167.98;2258381;78;21092;-79
2021/04/25 12:03:04;;;;;;;4.23;2.90;;;;;;;9.94;31.59;99164.69;2258456;79;21181;-80
2021/04/25 12:06:05;;;;;;;8.93;3.80;;;;;;;10.00;31.89;99161.31;2258084;79;21124;-79
2021/04/25 12:09:06;;;;;;;7.83;3.33;;;;;;;10.08;31.40;99172.34;2258113;79;21104;-79
2021/04/25 12:12:07;;;;;;;4.17;2.60;;;;;;;10.11;30.79;99166.31;2258378;79;21371;-78
2021/04/25 12:15:09;;;;;;;5.57;2.50;;;;;;;10.03;30.75;99165.29;2258173;78;21386;-79
2021/04/25 12:18:12;;;;;;;7.37;4.30;;;;;;;9.88;30.84;99161.95;2258160;79;21802;-79
2021/04/25 12:21:13;;;;;;;8.97;3.27;;;;;;;10.01;32.15;99169.17;2258239;79;21159;-78
2021/04/25 12:24:14;;;;;;;4.50;3.02;;;;;;;10.05;31.50;99174.90;2258655;79;21177;-78
2021/04/25 12:27:16;;;;;;;5.57;3.80;;;;;;;10.06;31.34;99180.56;2257912;78;21250;-79
2021/04/25 12:30:17;;;;;;;4.93;3.20;;;;;;;10.15;32.51;99172.91;2258048;79;21236;-78
2021/04/25 12:33:18;;;;;;;8.83;4.20;;;;;;;10.28;31.58;99183.61;2258124;79;21096;-78
2021/04/25 12:36:19;;;;;;;3.73;2.43;;;;;;;10.21;31.93;99180.89;2258098;79;21077;-78
2021/04/25 12:39:20;;;;;;;5.75;2.90;;;;;;;10.30;30.65;99174.96;2257913;79;21132;-78
2021/04/25 12:42:21;;;;;;;4.92;2.95;;;;;;;10.46;30.46;99178.75;2258195;79;21116;-78
2021/04/25 12:45:22;;;;;;;6.00;2.83;;;;;;;10.36;30.71;99183.33;2258194;79;21116;-80
2021/04/25 12:48:23;;;;;;;3.53;2.60;;;;;;;10.19;30.63;99176.03;2258293;79;21109;-79
2021/04/25 12:51:25;;;;;;;3.75;2.27;;;;;;;10.17;30.40;99163.81;2258332;79;21128;-78
2021/04/25 12:54:27;;;;;;;5.23;3.43;;;;;;;10.17;30.58;99170.34;2257859;78;21351;-78
2021/04/25 12:57:28;;;;;;;7.63;4.40;;;;;;;10.08;31.37;99172.34;2257949;78;21124;-78
2021/04/25 13:00:29;;;;;;;13.83;6.00;;;;;;;10.21;30.93;99164.36;2257903;79;21093;-78
2021/04/25 13:03:30;;;;;;;4.00;2.60;;;;;;;10.25;30.77;99163.56;2258217;78;21117;-79
2021/04/25 13:06:31;;;;;;;5.90;3.00;;;;;;;10.16;29.80;99165.55;2258083;78;21208;-80
2021/04/25 13:09:32;;;;;;;4.00;2.90;;;;;;;10.02;30.04;99164.41;2258103;79;21104;-78
2021/04/25 13:12:33;;;;;;;6.23;2.70;;;;;;;9.82;29.20;99160.11;2258410;79;21101;-78
2021/04/25 13:15:34;;;;;;;6.60;2.10;;;;;;;9.90;28.99;99157.66;2257792;79;21406;-78
2021/04/25 13:18:36;;;;;;;3.27;2.30;;;;;;;9.97;29.26;99156.92;2258067;79;21128;-78
2021/04/25 13:21:37;;;;;;;4.30;2.40;;;;;;;9.98;27.80;99157.80;2257773;79;21140;-78
2021/04/25 13:24:38;;;;;;;3.50;1.87;;;;;;;10.42;28.66;99154.33;2257766;79;21133;-78
2021/04/25 13:27:39;;;;;;;2.60;2.17;;;;;;;10.99;26.87;99146.11;2227812;79;21157;-78
2021/04/25 13:30:40;;;;;;;4.55;2.67;;;;;;;11.24;26.01;99149.95;2226368;80;21364;-79
2021/04/25 13:33:42;;;;;;;8.00;5.05;;;;;;;11.47;25.75;99158.58;2226390;79;21244;-79
2021/04/25 13:36:43;;;;;;;10.35;6.10;;;;;;;11.36;25.03;99145.80;2226561;80;21400;-79
2021/04/25 13:39:44;;;;;;;9.00;3.22;;;;;;;11.09;23.38;99152.80;2226354;80;21502;-78
2021/04/25 13:42:45;;;;;;;5.22;2.95;;;;;;;11.07;25.78;99141.45;2226351;80;21146;-77
2021/04/25 13:45:46;;;;;;;5.40;2.83;;;;;;;11.07;24.48;99139.26;2226204;80;21110;-79
2021/04/25 13:48:47;;;;;;;4.37;2.40;;;;;;;10.85;24.53;99142.86;2226248;80;21387;-78
2021/04/25 13:51:48;;;;;;;3.87;2.33;;;;;;;10.52;25.40;99155.37;2226564;80;21158;-78
2021/04/25 13:54:49;;;;;;;5.87;2.10;;;;;;;10.21;24.75;99155.23;2226469;80;21102;-78
2021/04/25 13:57:50;;;;;;;4.00;2.50;;;;;;;10.10;25.36;99145.87;2226444;80;21128;-78
2021/04/25 14:00:51;;;;;;;4.63;2.23;;;;;;;10.07;24.62;99145.81;2226339;79;21130;-78
2021/04/25 14:03:52;;;;;;;4.13;2.90;;;;;;;10.11;26.34;99132.41;2226360;80;21161;-78
2021/04/25 14:06:53;;;;;;;3.10;1.87;;;;;;;10.25;26.26;99134.86;2226703;80;21118;-79